Time;durP1;ratioP1;P1;durP2;ratioP2;P2;SDS_P1;SDS_P2;PMS_P1;PMS_P2;Temp;Humidity;BMP_temperature;BMP_pressure;BME280_temperature;BME280_humidity;BME280_pressure;Samples;Min_cycle;Max_cycle;Signal;HPM_P1;HPM_P2
2023/06/16 00:01:46;;;;;;;3.50;3.20;;;;;;;;;;5050911;28;20386;-80
2023/06/16 00:04:13;;;;;;;3.53;3.22;;;;;;;;;;5051356;28;20457;-79
2023/06/16 00:06:42;;;;;;;3.38;3.10;;;;;;;;;;5051401;28;20381;-80
2023/06/16 00:09:08;;;;;;;3.33;3.08;;;;;;;;;;5051364;28;20439;-79
2023/06/16 00:11:34;;;;;;;3.50;3.20;;;;;;;;;;5049405;28;20720;-80
2023/06/16 00:14:00;;;;;;;3.67;3.25;;;;;;;;;;5049533;28;20413;-79
2023/06/16 00:16:26;;;;;;;3.10;2.90;;;;;;;;;;5051345;28;20759;-80
2023/06/16 00:18:53;;;;;;;3.38;3.17;;;;;;;;;;5051394;28;20442;-80
2023/06/16 00:21:19;;;;;;;3.70;3.40;;;;;;;;;;5051072;28;20373;-80
2023/06/16 00:23:46;;;;;;;3.45;3.15;;;;;;;;;;5051219;28;20480;-80
2023/06/16 00:26:12;;;;;;;3.47;3.28;;;;;;;;;;5051193;28;20381;-79
2023/06/16 00:28:38;;;;;;;3.50;3.20;;;;;;;;;;5051196;28;20408;-79
2023/06/16 00:31:05;;;;;;;3.50;3.20;;;;;;;;;;5051014;28;20397;-79
2023/06/16 00:33:31;;;;;;;3.25;3.05;;;;;;;;;;5051017;28;20409;-79
2023/06/16 00:35:57;;;;;;;4.65;3.00;;;;;;;;;;5051154;28;20385;-80
2023/06/16 00:38:23;;;;;;;3.45;3.25;;;;;;;;;;5051150;28;20378;-79
2023/06/16 00:40:49;;;;;;;3.33;3.13;;;;;;;;;;5050886;28;20377;-79
2023/06/16 00:43:15;;;;;;;3.30;3.10;;;;;;;;;;5039816;28;20386;-80
2023/06/16 00:45:41;;;;;;;3.22;2.95;;;;;;;;;;5044947;28;20381;-80
2023/06/16 00:48:07;;;;;;;3.10;2.90;;;;;;;;;;5035245;28;20716;-80
2023/06/16 00:50:33;;;;;;;3.38;3.08;;;;;;;;;;5044800;28;20440;-79
2023/06/16 00:52:59;;;;;;;3.40;3.10;;;;;;;;;;5043499;28;20413;-80
2023/06/16 00:55:26;;;;;;;3.20;3.00;;;;;;;;;;5050991;28;20374;-80
2023/06/16 00:57:53;;;;;;;3.38;3.05;;;;;;;;;;5049214;28;20389;-80
2023/06/16 01:00:20;;;;;;;3.25;3.05;;;;;;;;;;5037637;28;20954;-79
2023/06/16 01:02:46;;;;;;;3.92;3.25;;;;;;;;;;5030925;28;20391;-80
2023/06/16 01:05:17;;;;;;;3.33;3.00;;;;;;;;;;5030993;28;20478;-80
2023/06/16 01:07:52;;;;;;;3.30;3.10;;;;;;;;;;5029525;28;20453;-80
2023/06/16 01:10:21;;;;;;;3.15;2.95;;;;;;;;;;5030892;28;20387;-79
2023/06/16 01:13:08;;;;;;;3.10;2.90;;;;;;;;;;5033679;28;20510;-80
2023/06/16 01:15:35;;;;;;;3.23;2.93;;;;;;;;;;5034628;28;20405;-80
2023/06/16 01:18:01;;;;;;;3.20;2.92;;;;;;;;;;5034396;28;20383;-80
2023/06/16 01:20:30;;;;;;;3.72;3.42;;;;;;;;;;5034285;28;20453;-79
2023/06/16 01:22:56;;;;;;;3.17;2.97;;;;;;;;;;5034309;28;20387;-80
2023/06/16 01:25:23;;;;;;;3.30;3.00;;;;;;;;;;5033797;28;20379;-80
2023/06/16 01:27:53;;;;;;;3.40;3.20;;;;;;;;;;5034105;28;20411;-79
2023/06/16 01:30:24;;;;;;;3.33;3.03;;;;;;;;;;5034339;28;20379;-79
2023/06/16 01:32:52;;;;;;;3.35;3.15;;;;;;;;;;5034127;28;20421;-79
2023/06/16 01:35:19;;;;;;;3.30;3.10;;;;;;;;;;5036588;28;20386;-79
2023/06/16 01:37:46;;;;;;;3.40;3.20;;;;;;;;;;5034113;28;20375;-79
2023/06/16 01:40:13;;;;;;;3.07;2.87;;;;;;;;;;5034172;28;20379;-79
2023/06/16 01:42:39;;;;;;;3.20;3.00;;;;;;;;;;5034105;28;20395;-79
2023/06/16 01:45:05;;;;;;;4.80;3.05;;;;;;;;;;5032606;28;20858;-80
2023/06/16 01:47:32;;;;;;;3.13;2.92;;;;;;;;;;5034534;28;20886;-80
2023/06/16 01:49:58;;;;;;;3.50;3.20;;;;;;;;;;5042260;28;20387;-79
2023/06/16 01:52:24;;;;;;;3.53;3.00;;;;;;;;;;5040120;28;20411;-79
2023/06/16 01:54:50;;;;;;;3.13;2.90;;;;;;;;;;5044705;28;20377;-80
2023/06/16 01:57:16;;;;;;;3.10;2.90;;;;;;;;;;5044111;28;20430;-80
2023/06/16 01:59:43;;;;;;;3.25;3.05;;;;;;;;;;5033755;28;20446;-80
2023/06/16 02:02:15;;;;;;;3.25;3.05;;;;;;;;;;5033672;28;20371;-80
2023/06/16 02:04:44;;;;;;;3.10;2.90;;;;;;;;;;5033535;28;20387;-79
2023/06/16 02:07:13;;;;;;;3.30;3.00;;;;;;;;;;5033538;28;20414;-79
2023/06/16 02:09:39;;;;;;;3.08;2.88;;;;;;;;;;5033670;28;20382;-80
2023/06/16 02:12:06;;;;;;;3.42;3.15;;;;;;;;;;5033457;28;20478;-80
2023/06/16 02:14:35;;;;;;;3.15;2.85;;;;;;;;;;5033273;28;20400;-80
2023/06/16 02:17:05;;;;;;;3.10;2.90;;;;;;;;;;5033297;28;20745;-79
2023/06/16 02:19:32;;;;;;;2.95;2.75;;;;;;;;;;5035925;28;20876;-79
2023/06/16 02:21:58;;;;;;;3.40;2.97;;;;;;;;;;5033241;28;20450;-79
2023/06/16 02:24:24;;;;;;;3.13;2.92;;;;;;;;;;5032520;28;20379;-80
2023/06/16 02:26:50;;;;;;;3.05;2.85;;;;;;;;;;5033055;28;20386;-79
2023/06/16 02:29:16;;;;;;;3.20;2.90;;;;;;;;;;5033291;28;20383;-79
2023/06/16 02:31:49;;;;;;;3.63;3.33;;;;;;;;;;5033111;28;20745;-79
2023/06/16 02:34:16;;;;;;;3.65;3.35;;;;;;;;;;5032840;28;20407;-79
2023/06/16 02:36:42;;;;;;;3.10;2.90;;;;;;;;;;5032957;28;20383;-79
2023/06/16 02:39:08;;;;;;;3.10;2.90;;;;;;;;;;5033019;28;21191;-79
2023/06/16 02:41:34;;;;;;;3.20;3.00;;;;;;;;;;5032955;28;20853;-79
2023/06/16 02:44:01;;;;;;;2.90;2.70;;;;;;;;;;5032706;28;20375;-79
2023/06/16 02:46:26;;;;;;;3.03;2.80;;;;;;;;;;5032725;28;20387;-80
2023/06/16 02:48:52;;;;;;;3.42;3.13;;;;;;;;;;5039139;28;20408;-79
2023/06/16 02:51:18;;;;;;;3.17;2.97;;;;;;;;;;5034792;28;20414;-79
2023/06/16 02:53:45;;;;;;;3.30;3.10;;;;;;;;;;5051227;28;20397;-79
2023/06/16 02:56:11;;;;;;;2.90;2.70;;;;;;;;;;5032734;28;20375;-79
2023/06/16 02:58:38;;;;;;;3.53;3.20;;;;;;;;;;5045352;28;20406;-79
2023/06/16 03:01:04;;;;;;;3.28;3.08;;;;;;;;;;5033959;28;20387;-80
2023/06/16 03:03:31;;;;;;;3.60;3.30;;;;;;;;;;5032279;28;20379;-79
2023/06/16 03:06:00;;;;;;;3.47;3.28;;;;;;;;;;5032388;28;20426;-79
2023/06/16 03:08:27;;;;;;;3.55;3.25;;;;;;;;;;5032392;28;20387;-79
2023/06/16 03:10:53;;;;;;;3.45;3.20;;;;;;;;;;5032346;28;20383;-79
2023/06/16 03:13:19;;;;;;;3.70;3.40;;;;;;;;;;5031898;28;20900;-79
2023/06/16 03:15:46;;;;;;;3.20;3.00;;;;;;;;;;5032201;28;20422;-79
2023/06/16 03:18:12;;;;;;;3.20;3.00;;;;;;;;;;5030981;28;20398;-79
2023/06/16 03:20:40;;;;;;;4.47;3.70;;;;;;;;;;5032208;28;20414;-79
2023/06/16 03:23:06;;;;;;;3.65;3.28;;;;;;;;;;5031915;28;20816;-79
2023/06/16 03:25:32;;;;;;;3.95;3.47;;;;;;;;;;5030658;28;20761;-79
2023/06/16 03:27:58;;;;;;;3.20;3.00;;;;;;;;;;5032009;28;20387;-80
2023/06/16 03:30:25;;;;;;;3.75;3.45;;;;;;;;;;5031974;28;20460;-80
2023/06/16 03:32:51;;;;;;;4.03;3.67;;;;;;;;;;5031709;28;20406;-79
2023/06/16 03:35:17;;;;;;;3.47;3.28;;;;;;;;;;5030467;28;20386;-79
2023/06/16 03:37:43;;;;;;;3.75;3.35;;;;;;;;;;5032022;28;20398;-79
2023/06/16 03:40:10;;;;;;;3.63;3.42;;;;;;;;;;5031749;28;20383;-79
2023/06/16 03:42:36;;;;;;;3.50;3.30;;;;;;;;;;5034290;28;20377;-80
2023/06/16 03:45:03;;;;;;;3.58;3.30;;;;;;;;;;5031679;28;20379;-80
2023/06/16 03:47:29;;;;;;;3.38;3.17;;;;;;;;;;5031816;28;20493;-79
2023/06/16 03:49:56;;;;;;;4.25;3.65;;;;;;;;;;5030289;28;20832;-79
2023/06/16 03:52:22;;;;;;;3.63;3.33;;;;;;;;;;5030201;28;20423;-80
2023/06/16 03:54:51;;;;;;;3.28;3.08;;;;;;;;;;5031727;28;20394;-79
2023/06/16 03:57:17;;;;;;;3.75;3.40;;;;;;;;;;5043594;28;20473;-79
2023/06/16 03:59:43;;;;;;;3.80;3.50;;;;;;;;;;5041654;28;20861;-79
2023/06/16 04:02:09;;;;;;;3.87;3.60;;;;;;;;;;5048444;28;20963;-80
2023/06/16 04:04:36;;;;;;;3.63;3.40;;;;;;;;;;5034708;28;20436;-79
2023/06/16 04:07:05;;;;;;;3.75;3.53;;;;;;;;;;5040053;28;20375;-79
2023/06/16 04:09:31;;;;;;;3.53;3.33;;;;;;;;;;5051187;28;20525;-79
2023/06/16 04:11:57;;;;;;;3.72;3.35;;;;;;;;;;5051211;28;20894;-79
2023/06/16 04:14:23;;;;;;;4.55;4.15;;;;;;;;;;5051059;28;20425;-79
2023/06/16 04:16:49;;;;;;;4.78;4.38;;;;;;;;;;5051235;28;20373;-80
2023/06/16 04:19:19;;;;;;;4.05;3.75;;;;;;;;;;5046719;28;20930;-79
2023/06/16 04:21:45;;;;;;;4.30;4.00;;;;;;;;;;5031113;28;20383;-79
2023/06/16 04:24:11;;;;;;;4.10;3.80;;;;;;;;;;5031109;28;20398;-80
2023/06/16 04:26:40;;;;;;;4.03;3.73;;;;;;;;;;5031249;28;20759;-79
2023/06/16 04:29:06;;;;;;;3.97;3.78;;;;;;;;;;5031153;28;20399;-79
2023/06/16 04:31:35;;;;;;;3.63;3.42;;;;;;;;;;5031141;28;20394;-79
2023/06/16 04:34:03;;;;;;;4.15;3.85;;;;;;;;;;5030970;28;20431;-80
2023/06/16 04:36:29;;;;;;;4.20;3.90;;;;;;;;;;5031052;28;20390;-79
2023/06/16 04:38:56;;;;;;;3.88;3.58;;;;;;;;;;5031236;28;20844;-79
2023/06/16 04:41:22;;;;;;;3.90;3.60;;;;;;;;;;5031078;28;20418;-79
2023/06/16 04:43:48;;;;;;;3.83;3.53;;;;;;;;;;5031081;28;20848;-79
2023/06/16 04:46:14;;;;;;;3.85;3.55;;;;;;;;;;5031964;28;20445;-79
2023/06/16 04:48:41;;;;;;;5.05;4.22;;;;;;;;;;5035194;28;20441;-78
2023/06/16 04:51:08;;;;;;;4.87;4.40;;;;;;;;;;5035090;28;20386;-79
2023/06/16 04:53:34;;;;;;;4.65;3.97;;;;;;;;;;5034705;28;20460;-78
2023/06/16 04:56:00;;;;;;;4.43;4.03;;;;;;;;;;5034225;28;20409;-79
2023/06/16 04:58:26;;;;;;;4.40;4.00;;;;;;;;;;5034786;28;20437;-79
2023/06/16 05:00:52;;;;;;;4.55;4.15;;;;;;;;;;5043528;28;20774;-79
2023/06/16 05:03:18;;;;;;;5.53;5.03;;;;;;;;;;5054713;28;20484;-79
2023/06/16 05:05:44;;;;;;;5.32;4.82;;;;;;;;;;5046939;28;20466;-79
2023/06/16 05:08:11;;;;;;;4.80;4.18;;;;;;;;;;5039452;28;20859;-79
2023/06/16 05:10:37;;;;;;;4.60;4.18;;;;;;;;;;5037429;28;20466;-79
2023/06/16 05:13:03;;;;;;;5.28;4.60;;;;;;;;;;5034200;28;20524;-79
2023/06/16 05:15:29;;;;;;;5.33;4.83;;;;;;;;;;5034605;28;20379;-79
2023/06/16 05:17:55;;;;;;;5.60;5.10;;;;;;;;;;5033123;28;20904;-79
2023/06/16 05:20:21;;;;;;;5.50;5.00;;;;;;;;;;5034398;28;20387;-78
2023/06/16 05:22:47;;;;;;;5.10;4.57;;;;;;;;;;5034392;28;20390;-78
2023/06/16 05:25:13;;;;;;;5.72;5.20;;;;;;;;;;5034289;28;20378;-78
2023/06/16 05:27:39;;;;;;;5.47;5.07;;;;;;;;;;5034252;28;20771;-78
2023/06/16 05:30:06;;;;;;;5.68;5.10;;;;;;;;;;5034201;28;20391;-78
2023/06/16 05:32:32;;;;;;;5.00;4.57;;;;;;;;;;5034049;28;20460;-78
2023/06/16 05:34:59;;;;;;;5.03;4.60;;;;;;;;;;5035897;28;20488;-78
2023/06/16 05:37:25;;;;;;;4.47;4.18;;;;;;;;;;5034101;28;20379;-79
2023/06/16 05:39:51;;;;;;;4.60;4.20;;;;;;;;;;5033971;28;20379;-79
2023/06/16 05:42:18;;;;;;;5.03;4.00;;;;;;;;;;5033463;28;20386;-79
2023/06/16 05:44:44;;;;;;;4.53;4.20;;;;;;;;;;5033876;28;20476;-79
2023/06/16 05:47:10;;;;;;;4.47;4.13;;;;;;;;;;5033786;28;20410;-79
2023/06/16 05:49:37;;;;;;;4.38;4.07;;;;;;;;;;5032744;28;20387;-79
2023/06/16 05:52:05;;;;;;;4.70;4.30;;;;;;;;;;5034109;28;20747;-79
2023/06/16 05:54:31;;;;;;;5.97;4.13;;;;;;;;;;5033619;28;20490;-79
2023/06/16 05:56:57;;;;;;;4.50;4.15;;;;;;;;;;5034478;28;20380;-79
2023/06/16 05:59:23;;;;;;;4.50;4.10;;;;;;;;;;5053576;28;20385;-79
2023/06/16 06:01:49;;;;;;;4.43;4.03;;;;;;;;;;5053621;28;20941;-79
2023/06/16 06:04:15;;;;;;;5.03;4.10;;;;;;;;;;5053389;28;20377;-79
2023/06/16 06:06:41;;;;;;;5.68;3.95;;;;;;;;;;5051216;28;20920;-79
2023/06/16 06:09:07;;;;;;;5.40;4.90;;;;;;;;;;5045481;28;20479;-79
2023/06/16 06:11:33;;;;;;;4.75;4.35;;;;;;;;;;5041723;28;20397;-79
2023/06/16 06:13:59;;;;;;;4.28;3.97;;;;;;;;;;5038770;28;20407;-79
2023/06/16 06:16:27;;;;;;;4.53;4.07;;;;;;;;;;5042088;28;21014;-79
2023/06/16 06:18:53;;;;;;;4.70;4.30;;;;;;;;;;5033317;28;20389;-80
2023/06/16 06:21:19;;;;;;;4.82;4.43;;;;;;;;;;5033334;28;20379;-79
2023/06/16 06:23:45;;;;;;;4.50;4.10;;;;;;;;;;5032861;28;20383;-79
2023/06/16 06:26:11;;;;;;;5.75;4.30;;;;;;;;;;5035592;28;20381;-79
2023/06/16 06:28:37;;;;;;;4.32;3.78;;;;;;;;;;5033283;28;20433;-79
2023/06/16 06:31:03;;;;;;;5.63;4.10;;;;;;;;;;5033014;28;20538;-79
2023/06/16 06:33:30;;;;;;;5.00;4.55;;;;;;;;;;5032850;28;20415;-79
2023/06/16 06:35:56;;;;;;;4.28;3.88;;;;;;;;;;5032847;28;20379;-79
2023/06/16 06:38:22;;;;;;;5.03;4.53;;;;;;;;;;5033194;28;20425;-79
2023/06/16 06:40:48;;;;;;;4.55;4.10;;;;;;;;;;5033029;28;20429;-79
2023/06/16 06:43:14;;;;;;;4.73;4.43;;;;;;;;;;5032663;28;20479;-79
2023/06/16 06:45:40;;;;;;;4.07;3.78;;;;;;;;;;5032701;28;20458;-79
2023/06/16 06:48:06;;;;;;;5.40;4.57;;;;;;;;;;5032806;28;20978;-80
2023/06/16 06:50:32;;;;;;;5.30;4.60;;;;;;;;;;5032711;28;20387;-79
2023/06/16 06:52:58;;;;;;;5.90;5.30;;;;;;;;;;5032415;28;20511;-80
2023/06/16 06:55:24;;;;;;;5.03;4.40;;;;;;;;;;5032540;28;20387;-79
2023/06/16 06:57:50;;;;;;;4.45;4.05;;;;;;;;;;5032634;28;20386;-80
2023/06/16 07:00:16;;;;;;;4.53;4.18;;;;;;;;;;5032447;28;20371;-80
2023/06/16 07:02:43;;;;;;;4.63;4.32;;;;;;;;;;5046036;28;20388;-80
2023/06/16 07:05:09;;;;;;;4.78;4.40;;;;;;;;;;5033296;28;20423;-80
2023/06/16 07:07:35;;;;;;;4.55;4.10;;;;;;;;;;5032336;28;20387;-80
2023/06/16 07:10:01;;;;;;;6.95;4.32;;;;;;;;;;5031969;28;20375;-80
2023/06/16 07:12:28;;;;;;;5.00;4.50;;;;;;;;;;5047258;28;21649;-81
2023/06/16 07:14:54;;;;;;;4.82;3.85;;;;;;;;;;5042472;28;20399;-80
2023/06/16 07:17:20;;;;;;;4.00;3.70;;;;;;;;;;5043184;28;20381;-80
2023/06/16 07:19:46;;;;;;;3.97;3.67;;;;;;;;;;5038701;28;20482;-80
2023/06/16 07:22:12;;;;;;;4.63;3.80;;;;;;;;;;5032138;28;20386;-80
2023/06/16 07:24:38;;;;;;;4.47;3.80;;;;;;;;;;5032055;28;20395;-80
2023/06/16 07:27:04;;;;;;;4.00;3.60;;;;;;;;;;5033129;28;20443;-80
2023/06/16 07:29:30;;;;;;;10.55;3.88;;;;;;;;;;5033137;28;20441;-80
2023/06/16 07:31:56;;;;;;;28.23;4.63;;;;;;;;;;5031921;28;20420;-81
2023/06/16 07:34:22;;;;;;;41.03;5.90;;;;;;;;;;5031740;28;20403;-80
2023/06/16 07:36:49;;;;;;;46.75;6.22;;;;;;;;;;5031906;28;20464;-80
2023/06/16 07:39:16;;;;;;;4.65;3.90;;;;;;;;;;5031769;28;20433;-80
2023/06/16 07:41:41;;;;;;;3.90;3.33;;;;;;;;;;5031274;28;20379;-80
2023/06/16 07:44:07;;;;;;;4.20;3.90;;;;;;;;;;5031589;28;20395;-81
2023/06/16 07:46:34;;;;;;;3.88;3.47;;;;;;;;;;5031718;28;20932;-81
2023/06/16 07:49:00;;;;;;;4.20;3.90;;;;;;;;;;5031610;28;20444;-81
2023/06/16 07:51:26;;;;;;;4.00;3.70;;;;;;;;;;5031596;28;20394;-80
2023/06/16 07:53:53;;;;;;;4.00;3.70;;;;;;;;;;5031429;28;20442;-81
2023/06/16 07:56:19;;;;;;;4.07;3.70;;;;;;;;;;5034631;28;20460;-81
2023/06/16 07:58:45;;;;;;;4.88;4.05;;;;;;;;;;5051288;28;20878;-81
2023/06/16 08:01:11;;;;;;;4.63;4.22;;;;;;;;;;5051252;28;20922;-81
2023/06/16 08:03:37;;;;;;;6.03;5.43;;;;;;;;;;5051382;28;20720;-81
2023/06/16 08:06:04;;;;;;;5.78;5.28;;;;;;;;;;5051354;28;20392;-81
2023/06/16 08:08:32;;;;;;;5.60;5.10;;;;;;;;;;5051352;28;20809;-81
2023/06/16 08:10:58;;;;;;;4.68;4.28;;;;;;;;;;5051235;28;20885;-81
2023/06/16 08:13:30;;;;;;;4.28;3.88;;;;;;;;;;5050954;28;20432;-80
2023/06/16 08:15:56;;;;;;;4.32;3.92;;;;;;;;;;5049072;28;20386;-81
2023/06/16 08:18:24;;;;;;;4.00;3.70;;;;;;;;;;5040687;28;20462;-81
2023/06/16 08:20:50;;;;;;;4.45;3.80;;;;;;;;;;5039410;28;20918;-81
2023/06/16 08:23:16;;;;;;;4.00;3.70;;;;;;;;;;5038312;28;20378;-81
2023/06/16 08:25:42;;;;;;;4.22;3.88;;;;;;;;;;5050163;28;20866;-81
2023/06/16 08:28:08;;;;;;;4.80;4.40;;;;;;;;;;5057869;28;20381;-81
2023/06/16 08:30:35;;;;;;;4.85;4.45;;;;;;;;;;5057693;28;20476;-81
2023/06/16 08:33:01;;;;;;;5.10;4.70;;;;;;;;;;5057624;28;20562;-81
2023/06/16 08:35:28;;;;;;;4.10;3.80;;;;;;;;;;5051399;28;20816;-82
2023/06/16 08:37:57;;;;;;;4.45;3.90;;;;;;;;;;5037771;28;20391;-81
2023/06/16 08:40:23;;;;;;;3.85;3.55;;;;;;;;;;5036345;28;20811;-81
2023/06/16 08:42:49;;;;;;;3.93;3.63;;;;;;;;;;5036523;28;20426;-82
2023/06/16 08:45:15;;;;;;;4.20;3.90;;;;;;;;;;5037693;28;20462;-82
2023/06/16 08:47:42;;;;;;;3.72;3.42;;;;;;;;;;5037662;28;20386;-81
2023/06/16 08:50:09;;;;;;;3.75;3.35;;;;;;;;;;5037433;28;20399;-81
2023/06/16 08:52:38;;;;;;;3.80;3.45;;;;;;;;;;5038927;28;20469;-82
2023/06/16 08:55:07;;;;;;;5.13;4.10;;;;;;;;;;5048876;28;20433;-81
2023/06/16 08:57:35;;;;;;;17.60;4.60;;;;;;;;;;5037447;28;20371;-81
2023/06/16 09:00:02;;;;;;;7.88;4.82;;;;;;;;;;5037548;28;20390;-81
2023/06/16 09:02:31;;;;;;;6.03;5.47;;;;;;;;;;5037517;28;20505;-82
2023/06/16 09:04:58;;;;;;;5.20;4.70;;;;;;;;;;5037540;28;20458;-81
2023/06/16 09:07:27;;;;;;;10.23;5.90;;;;;;;;;;5037402;28;20375;-82
2023/06/16 09:09:53;;;;;;;6.93;5.82;;;;;;;;;;5037571;28;20379;-81
2023/06/16 09:12:19;;;;;;;5.90;5.30;;;;;;;;;;5037421;28;20375;-81
2023/06/16 09:14:49;;;;;;;4.85;4.43;;;;;;;;;;5037389;28;20402;-81
2023/06/16 09:17:18;;;;;;;4.18;3.80;;;;;;;;;;5037399;28;20732;-81
2023/06/16 09:19:48;;;;;;;4.30;3.85;;;;;;;;;;5037462;28;20421;-81
2023/06/16 09:22:23;;;;;;;4.03;3.65;;;;;;;;;;5039590;28;20382;-81
2023/06/16 09:24:55;;;;;;;4.30;3.85;;;;;;;;;;5048801;28;20377;-81
2023/06/16 09:27:21;;;;;;;4.00;3.70;;;;;;;;;;5052253;28;20385;-81
2023/06/16 09:29:52;;;;;;;3.90;3.50;;;;;;;;;;5037106;28;20487;-81
2023/06/16 09:32:18;;;;;;;4.20;3.80;;;;;;;;;;5055473;28;20416;-81
2023/06/16 09:34:44;;;;;;;4.50;4.10;;;;;;;;;;5034434;28;20449;-81
2023/06/16 09:37:10;;;;;;;4.47;4.07;;;;;;;;;;5034117;28;20407;-81
2023/06/16 09:39:37;;;;;;;4.68;4.28;;;;;;;;;;5034173;28;20379;-81
2023/06/16 09:42:03;;;;;;;4.65;4.25;;;;;;;;;;5033504;28;20693;-81
2023/06/16 09:44:31;;;;;;;5.10;4.28;;;;;;;;;;5033852;28;20386;-81
2023/06/16 09:47:01;;;;;;;4.20;3.90;;;;;;;;;;5033829;28;20864;-81
2023/06/16 09:49:27;;;;;;;4.27;3.93;;;;;;;;;;5033209;28;20791;-82
2023/06/16 09:51:54;;;;;;;3.97;3.67;;;;;;;;;;5033743;28;20391;-82
2023/06/16 09:54:21;;;;;;;3.80;3.50;;;;;;;;;;5033884;28;20915;-82
2023/06/16 09:56:47;;;;;;;3.87;3.47;;;;;;;;;;5052521;28;20381;-82
2023/06/16 09:59:13;;;;;;;4.35;3.95;;;;;;;;;;5053632;28;20388;-82
2023/06/16 10:01:40;;;;;;;4.25;3.85;;;;;;;;;;5053686;28;20385;-82
2023/06/16 10:04:07;;;;;;;5.90;3.65;;;;;;;;;;5053825;28;20381;-81
2023/06/16 10:06:36;;;;;;;3.70;3.40;;;;;;;;;;5053446;28;20393;-82
2023/06/16 10:09:02;;;;;;;5.05;3.35;;;;;;;;;;5053484;28;20874;-81
2023/06/16 10:11:29;;;;;;;3.90;3.60;;;;;;;;;;5053436;28;20386;-81
2023/06/16 10:13:57;;;;;;;3.83;3.47;;;;;;;;;;5052923;28;20453;-81
2023/06/16 10:16:28;;;;;;;3.42;3.22;;;;;;;;;;5053404;28;20389;-81
2023/06/16 10:18:57;;;;;;;3.65;3.35;;;;;;;;;;5052093;28;20377;-82
2023/06/16 10:21:26;;;;;;;3.45;3.22;;;;;;;;;;5053248;28;20385;-82
2023/06/16 10:23:52;;;;;;;3.53;3.10;;;;;;;;;;5052982;28;20386;-82
2023/06/16 10:26:18;;;;;;;3.85;3.55;;;;;;;;;;5051074;28;20415;-82
2023/06/16 10:28:46;;;;;;;4.00;3.60;;;;;;;;;;5040070;28;20437;-82
2023/06/16 10:31:12;;;;;;;11.07;6.75;;;;;;;;;;5049575;28;20378;-82
2023/06/16 10:33:57;;;;;;;6.63;3.83;;;;;;;;;;5039512;28;20402;-82
2023/06/16 10:36:24;;;;;;;7.63;3.53;;;;;;;;;;5041820;28;20434;-82
2023/06/16 10:38:58;;;;;;;3.53;3.22;;;;;;;;;;5052822;28;20374;-82
2023/06/16 10:41:24;;;;;;;4.68;4.30;;;;;;;;;;5052892;28;20431;-82
2023/06/16 10:43:51;;;;;;;4.53;4.13;;;;;;;;;;5052179;28;20713;-81
2023/06/16 10:46:18;;;;;;;4.35;3.65;;;;;;;;;;5052915;28;20387;-82
2023/06/16 10:48:57;;;;;;;3.85;3.42;;;;;;;;;;5052180;28;20381;-81
2023/06/16 10:51:41;;;;;;;4.93;3.55;;;;;;;;;;5052678;28;20377;-82
2023/06/16 10:54:08;;;;;;;3.47;3.20;;;;;;;;;;5051256;28;20854;-82
2023/06/16 10:56:53;;;;;;;3.30;3.00;;;;;;;;;;5052644;28;20385;-82
2023/06/16 10:59:19;;;;;;;3.78;3.40;;;;;;;;;;5050824;28;20863;-81
2023/06/16 11:01:46;;;;;;;4.00;3.60;;;;;;;;;;5032360;28;20381;-81
2023/06/16 11:04:15;;;;;;;3.85;3.55;;;;;;;;;;5032456;28;20481;-81
2023/06/16 11:06:59;;;;;;;4.10;3.40;;;;;;;;;;5032335;28;20397;-81
2023/06/16 11:09:32;;;;;;;3.80;3.50;;;;;;;;;;5032512;28;20375;-82
2023/06/16 11:11:58;;;;;;;4.45;3.40;;;;;;;;;;5032195;28;20639;-80
2023/06/16 11:14:25;;;;;;;3.67;3.43;;;;;;;;;;5030869;28;20415;-80
2023/06/16 11:16:51;;;;;;;3.70;3.40;;;;;;;;;;5032202;28;20381;-80
2023/06/16 11:19:18;;;;;;;3.63;3.33;;;;;;;;;;5032270;28;20379;-82
2023/06/16 11:21:45;;;;;;;4.17;3.43;;;;;;;;;;5034724;28;20470;-82
2023/06/16 11:24:12;;;;;;;4.30;3.50;;;;;;;;;;5032043;28;20914;-82
2023/06/16 11:26:38;;;;;;;3.90;3.60;;;;;;;;;;5032183;28;20748;-80
2023/06/16 11:29:07;;;;;;;3.60;3.22;;;;;;;;;;5032950;28;20383;-80
2023/06/16 11:31:37;;;;;;;3.90;3.17;;;;;;;;;;5040868;28;20485;-80
2023/06/16 11:34:03;;;;;;;3.60;3.30;;;;;;;;;;5039519;28;20411;-80
2023/06/16 11:36:30;;;;;;;4.85;3.47;;;;;;;;;;5041664;28;20438;-82
2023/06/16 11:38:56;;;;;;;3.55;3.25;;;;;;;;;;5051762;28;20863;-82
2023/06/16 11:41:23;;;;;;;3.90;3.60;;;;;;;;;;5051754;28;20846;-82
2023/06/16 11:43:53;;;;;;;3.92;3.53;;;;;;;;;;5051536;28;20443;-82
2023/06/16 11:46:21;;;;;;;5.55;3.65;;;;;;;;;;5051718;28;20382;-81
2023/06/16 11:48:47;;;;;;;4.23;3.67;;;;;;;;;;5051592;28;20861;-80
2023/06/16 11:51:16;;;;;;;6.15;3.78;;;;;;;;;;5051638;28;20380;-82
2023/06/16 11:53:44;;;;;;;4.35;3.40;;;;;;;;;;5038572;28;20438;-80
2023/06/16 11:56:14;;;;;;;4.35;3.60;;;;;;;;;;5047357;28;20480;-81
2023/06/16 11:58:42;;;;;;;4.30;3.80;;;;;;;;;;5051429;28;20377;-81
2023/06/16 12:01:12;;;;;;;4.03;3.63;;;;;;;;;;5051410;28;20394;-81
2023/06/16 12:03:39;;;;;;;4.25;3.85;;;;;;;;;;5051699;28;20390;-81
2023/06/16 12:06:06;;;;;;;3.80;3.50;;;;;;;;;;5051398;28;20928;-81
2023/06/16 12:08:35;;;;;;;5.28;4.03;;;;;;;;;;5051293;28;20456;-81
2023/06/16 12:11:01;;;;;;;4.18;3.60;;;;;;;;;;5051240;28;20926;-81
2023/06/16 12:13:28;;;;;;;6.37;3.93;;;;;;;;;;5051133;28;20568;-82
2023/06/16 12:15:54;;;;;;;3.70;3.30;;;;;;;;;;5051264;28;20385;-81
2023/06/16 12:18:20;;;;;;;3.85;3.47;;;;;;;;;;5051218;28;20381;-82
2023/06/16 12:20:46;;;;;;;4.00;3.47;;;;;;;;;;5051178;28;20427;-81
2023/06/16 12:23:12;;;;;;;3.78;3.38;;;;;;;;;;5051242;28;20855;-81
2023/06/16 12:25:40;;;;;;;3.78;3.47;;;;;;;;;;5051343;28;20464;-82
2023/06/16 12:28:06;;;;;;;3.75;3.40;;;;;;;;;;5047866;28;20747;-81
2023/06/16 12:30:33;;;;;;;4.15;3.75;;;;;;;;;;5051129;28;20446;-82
2023/06/16 12:33:08;;;;;;;4.15;3.60;;;;;;;;;;5051026;28;20406;-81
2023/06/16 12:35:34;;;;;;;3.42;3.20;;;;;;;;;;5051147;28;20382;-81
2023/06/16 12:38:00;;;;;;;4.90;4.32;;;;;;;;;;5048887;28;20928;-82
2023/06/16 12:40:31;;;;;;;5.30;3.53;;;;;;;;;;5039928;28;20460;-82
2023/06/16 12:42:57;;;;;;;3.42;3.13;;;;;;;;;;5036105;28;20853;-81
2023/06/16 12:45:22;;;;;;;8.40;3.42;;;;;;;;;;5042224;28;20389;-81
2023/06/16 12:47:48;;;;;;;3.65;3.35;;;;;;;;;;5039169;28;20388;-81
2023/06/16 12:50:14;;;;;;;3.35;3.05;;;;;;;;;;5043991;28;20753;-82
2023/06/16 12:52:40;;;;;;;3.95;3.53;;;;;;;;;;5050914;28;20463;-82
2023/06/16 12:55:07;;;;;;;3.75;3.30;;;;;;;;;;5049680;28;20472;-81
2023/06/16 12:57:33;;;;;;;3.90;3.50;;;;;;;;;;5029880;28;20383;-81
2023/06/16 12:59:59;;;;;;;3.70;3.40;;;;;;;;;;5031044;28;20387;-82
2023/06/16 13:02:25;;;;;;;5.43;3.30;;;;;;;;;;5030952;28;20463;-81
2023/06/16 13:04:51;;;;;;;4.38;3.38;;;;;;;;;;5030957;28;20387;-81
2023/06/16 13:07:17;;;;;;;3.75;3.45;;;;;;;;;;5031725;28;20385;-81
2023/06/16 13:09:43;;;;;;;3.80;3.50;;;;;;;;;;5034689;28;20413;-81
2023/06/16 13:12:10;;;;;;;4.57;3.20;;;;;;;;;;5034481;28;20437;-81
2023/06/16 13:14:36;;;;;;;3.90;3.60;;;;;;;;;;5034559;28;20411;-81
2023/06/16 13:17:02;;;;;;;4.10;3.50;;;;;;;;;;5034510;28;20414;-81
2023/06/16 13:19:28;;;;;;;4.20;3.70;;;;;;;;;;5034506;28;20380;-81
2023/06/16 13:21:54;;;;;;;3.88;3.25;;;;;;;;;;5034491;28;20418;-81
2023/06/16 13:24:20;;;;;;;6.15;3.30;;;;;;;;;;5033335;28;20786;-81
2023/06/16 13:26:46;;;;;;;4.57;3.60;;;;;;;;;;5034341;28;20746;-81
2023/06/16 13:29:12;;;;;;;4.00;3.40;;;;;;;;;;5035423;28;20876;-81
2023/06/16 13:31:38;;;;;;;3.83;3.50;;;;;;;;;;5034344;28;20394;-81
2023/06/16 13:34:04;;;;;;;3.60;3.30;;;;;;;;;;5034164;28;20467;-81
2023/06/16 13:36:32;;;;;;;3.93;3.57;;;;;;;;;;5034218;28;20377;-81
2023/06/16 13:38:58;;;;;;;3.90;3.60;;;;;;;;;;5034092;28;21181;-81
2023/06/16 13:41:27;;;;;;;4.00;3.53;;;;;;;;;;5034750;28;20493;-81
2023/06/16 13:43:54;;;;;;;3.77;3.40;;;;;;;;;;5047868;28;20507;-81
2023/06/16 13:46:20;;;;;;;3.58;3.28;;;;;;;;;;5039466;28;20525;-81
2023/06/16 13:48:47;;;;;;;4.32;3.47;;;;;;;;;;5034233;28;20928;-81
2023/06/16 13:51:13;;;;;;;3.95;3.53;;;;;;;;;;5048577;28;20855;-81
2023/06/16 13:53:39;;;;;;;5.13;3.80;;;;;;;;;;5053529;28;20416;-81
2023/06/16 13:56:05;;;;;;;3.37;3.17;;;;;;;;;;5048658;28;20394;-81
2023/06/16 13:58:31;;;;;;;3.63;3.33;;;;;;;;;;5038363;28;20389;-81
2023/06/16 14:00:57;;;;;;;3.63;3.23;;;;;;;;;;5053655;28;20386;-81
2023/06/16 14:03:25;;;;;;;3.70;3.40;;;;;;;;;;5053451;28;20404;-81
2023/06/16 14:05:51;;;;;;;4.20;3.60;;;;;;;;;;5053458;28;20465;-81
2023/06/16 14:08:17;;;;;;;3.72;3.08;;;;;;;;;;5053600;28;20473;-81
2023/06/16 14:10:43;;;;;;;3.75;3.45;;;;;;;;;;5052425;28;20909;-81
2023/06/16 14:13:11;;;;;;;3.65;3.38;;;;;;;;;;5052007;28;20429;-81
2023/06/16 14:15:37;;;;;;;3.90;3.60;;;;;;;;;;5053409;28;20381;-81
2023/06/16 14:18:03;;;;;;;3.50;3.30;;;;;;;;;;5053450;28;20373;-81
2023/06/16 14:20:29;;;;;;;3.40;3.10;;;;;;;;;;5051510;28;20472;-81
2023/06/16 14:22:56;;;;;;;7.35;6.75;;;;;;;;;;5050956;28;20468;-81
2023/06/16 14:25:22;;;;;;;3.83;3.53;;;;;;;;;;5053120;28;20400;-80
2023/06/16 14:27:48;;;;;;;3.85;3.50;;;;;;;;;;5053275;28;20381;-81
2023/06/16 14:30:15;;;;;;;3.63;3.40;;;;;;;;;;5053217;28;20389;-80
2023/06/16 14:32:41;;;;;;;4.18;3.88;;;;;;;;;;5051784;28;21001;-80
2023/06/16 14:35:08;;;;;;;3.92;3.63;;;;;;;;;;5052990;28;20435;-80
2023/06/16 14:37:34;;;;;;;3.90;3.60;;;;;;;;;;5052958;28;20385;-80
2023/06/16 14:40:00;;;;;;;3.63;3.35;;;;;;;;;;5052953;28;20373;-80
2023/06/16 14:42:27;;;;;;;3.70;3.50;;;;;;;;;;5052536;28;20435;-81